N5FKU Weather Reports


Display with metric or nautical units.
time (UTC)temp
F
wind
direction
speed
MPH
gust
MPH
rain 1hr
in
rain 24hr
in
rain mn
in
humidity
%
barometer
mb
20220122043802 35 171 1.0 2.0 0.00 0.00 0.00 43 1031.5
20220122042305 35 185 1.0 2.0 0.00 0.00 0.00 42 1031.5
20220122040802 35 192 1.0 2.0 0.00 0.00 0.00 41 1031.5
20220122035306 35 171 1.0 2.0 0.00 0.00 0.00 40 1031.2
20220122033802 36 138 2.0 2.0 0.00 0.00 0.00 39 1031.2
20220122032305 36 166 1.0 2.0 0.00 0.00 0.00 38 1031.2
20220122030802 36 166 1.0 1.0 0.00 0.00 0.00 38 1031.2
20220122025305 36 170 1.0 1.0 0.00 0.00 0.00 37 1031.2
20220122023803 37 130 1.0 2.0 0.00 0.00 0.00 37 1030.8
20220122022305 37 167 0.0 2.0 0.00 0.00 0.00 36 1030.8
20220122020802 37 185 0.0 1.0 0.00 0.00 0.00 37 1030.8
20220122015305 37 172 0.0 1.0 0.00 0.00 0.00 38 1030.5
20220122013802 37 182 0.0 1.0 0.00 0.00 0.00 38 1030.5
20220122012305 37 205 0.0 0.0 0.00 0.00 0.00 38 1030.8
20220122010802 37 198 0.0 0.0 0.00 0.00 0.00 37 1030.5
20220122005305 38 203 0.0 1.0 0.00 0.00 0.00 36 1030.1
20220122003802 39 196 0.0 1.0 0.00 0.00 0.00 34 1030.1
20220122002301 39 171 0.0 1.0 0.00 0.00 0.00 34 1030.1
20220122000802 40 149 0.0 2.0 0.00 0.00 0.00 33 1029.8
20220121235305 41 183 1.0 2.0 0.00 0.00 0.00 32 1029.5
20220121233802 41 74 1.0 3.0 0.00 0.00 0.00 31 1029.5
20220121232305 42 181 1.0 3.0 0.00 0.00 0.00 31 1029.5
20220121230801 42 161 1.0 3.0 0.00 0.00 0.00 30 1029.5
20220121225305 42 350 2.0 3.0 0.00 0.00 0.00 30 1029.5
20220121223802 42 157 2.0 4.0 0.00 0.00 0.00 29 1029.5
20220121222305 43 200 1.0 2.0 0.00 0.00 0.00 27 1029.8
20220121220802 43 108 3.0 3.0 0.00 0.00 0.00 27 1029.8
20220121215305 43 66 1.0 4.0 0.00 0.00 0.00 27 1030.1
20220121213803 42 59 2.0 4.0 0.00 0.00 0.00 27 1030.1
20220121212305 44 189 2.0 3.0 0.00 0.00 0.00 26 1030.1
20220121210803 44 179 1.0 3.0 0.00 0.00 0.00 25 1030.5
20220121205305 42 104 1.0 4.0 0.00 0.00 0.00 27 1030.5
20220121203801 42 230 1.0 5.0 0.00 0.00 0.00 28 1030.5
20220121202305 42 63 4.0 7.0 0.00 0.00 0.00 29 1030.5
20220121200802 42 174 2.0 4.0 0.00 0.00 0.00 27 1030.8
20220121195305 42 67 2.0 3.0 0.00 0.00 0.00 27 1030.8
20220121193802 42 222 1.0 3.0 0.00 0.00 0.00 29 1031.2
20220121192305 39 136 1.0 3.0 0.00 0.00 0.00 31 1031.5
20220121190802 39 146 2.0 2.0 0.00 0.00 0.00 32 1031.8
20220121185305 39 232 3.0 4.0 0.00 0.00 0.00 31 1032.2
20220121183802 37 189 1.0 3.0 0.00 0.00 0.00 33 1032.5
20220121182305 38 212 0.0 3.0 0.00 0.00 0.00 32 1033.2
20220121180802 37 202 2.0 3.0 0.00 0.00 0.00 35 1033.5
20220121175802 36 51 1.0 5.0 0.00 0.00 0.00 37 1033.5
20220121174302 35 113 2.0 3.0 0.00 0.00 0.00 37 1033.5
20220121173301 34 22 2.0 3.0 0.00 0.00 0.00 39 1033.9
20220121171803 34 153 2.0 3.0 0.00 0.00 0.00 37 1033.9
20220121170802 33 346 1.0 3.0 0.00 0.00 0.00 38 1033.9
20220121165305 32 118 1.0 3.0 0.00 0.00 0.00 40 1034.2
20220121163802 31 150 2.0 4.0 0.00 0.00 0.00 41 1034.2
20220121162306 30 126 1.0 3.0 0.00 0.00 0.00 42 1034.2
20220121161302 30 104 2.0 3.0 0.00 0.00 0.00 42 1034.2
20220121155802 28 191 0.0 3.0 0.00 0.00 0.00 44 1034.2
20220121154302 27 67 2.0 3.0 0.00 0.00 0.00 45 1034.2
20220121152802 27 163 1.0 3.0 0.00 0.00 0.00 46 1034.2
20220121151302 26 258 2.0 2.0 0.00 0.00 0.00 49 1034.2
20220121145802 24 15 2.0 3.0 0.00 0.00 0.00 51 1033.9
20220121144302 23 57 2.0 3.0 0.00 0.00 0.00 54 1033.9
20220121142802 21 167 1.0 2.0 0.00 0.00 0.00 59 1033.5
20220121141302 20 192 1.0 2.0 0.00 0.00 0.00 60 1033.5
20220121135802 20 263 0.0 2.0 0.00 0.00 0.00 61 1033.9
20220121134402 20 277 1.0 1.0 0.00 0.00 0.00 61 1033.9
20220121132803 20 239 2.0 2.0 0.00 0.00 0.00 60 1033.5
20220121131802 20 226 1.0 1.0 0.00 0.00 0.00 59 1033.2
20220121130302 20 233 0.0 1.0 0.00 0.00 0.00 59 1033.2
20220121124803 20 241 0.0 1.0 0.00 0.00 0.00 58 1033.2
20220121123302 21 270 1.0 1.0 0.00 0.00 0.00 57 1032.8
20220121121802 21 179 1.0 2.0 0.00 0.00 0.00 56 1032.8
20220121120302 21 212 0.0 2.0 0.00 0.00 0.00 56 1032.8
20220121114802 22 243 2.0 2.0 0.00 0.00 0.00 55 1032.8
20220121113302 22 187 2.0 2.0 0.00 0.00 0.00 53 1032.8
20220121111803 23 171 1.0 2.0 0.00 0.00 0.00 52 1032.8
20220121110302 23 266 2.0 2.0 0.00 0.00 0.00 50 1033.2
20220121104802 24 119 2.0 2.0 0.00 0.00 0.00 48 1032.8
20220121103302 24 251 2.0 4.0 0.00 0.00 0.00 46 1033.2
20220121101802 24 264 1.0 2.0 0.00 0.00 0.00 47 1033.2
20220121100302 24 275 1.0 2.0 0.00 0.00 0.00 46 1033.2
20220121094802 24 106 1.0 2.0 0.00 0.00 0.00 45 1033.2
20220121093302 24 11 4.0 4.0 0.00 0.00 0.00 44 1033.5
20220121091801 24 17 2.0 4.0 0.00 0.00 0.00 43 1033.5
20220121090302 25 226 1.0 2.0 0.00 0.00 0.00 44 1033.5
20220121084803 25 245 1.0 4.0 0.00 0.00 0.00 43 1033.5
20220121083302 25 149 3.0 5.0 0.00 0.00 0.00 42 1033.5
20220121081802 25 336 1.0 4.0 0.00 0.00 0.00 43 1033.9
20220121080302 25 42 2.0 6.0 0.00 0.00 0.00 42 1033.9
20220121074802 25 197 1.0 3.0 0.00 0.00 0.00 43 1033.9
20220121073302 25 118 1.0 3.0 0.00 0.00 0.00 44 1033.9
20220121071802 26 273 2.0 3.0 0.00 0.00 0.00 44 1033.9
20220121070302 26 228 1.0 3.0 0.00 0.00 0.00 45 1034.2
20220121064802 26 273 0.0 2.0 0.00 0.00 0.00 45 1034.2
20220121063302 26 200 2.0 3.0 0.00 0.00 0.00 44 1034.2
20220121061802 27 151 2.0 4.0 0.00 0.00 0.00 43 1034.2
20220121060302 27 263 2.0 5.0 0.00 0.00 0.00 41 1034.2
20220121054803 28 106 2.0 3.0 0.00 0.00 0.00 40 1034.2
20220121053302 28 225 1.0 4.0 0.00 0.00 0.00 38 1034.2
20220121051802 28 149 2.0 3.0 0.00 0.00 0.00 38 1034.5
20220121050302 28 21 3.0 5.0 0.00 0.00 0.00 37 1034.2